Date,TemperatureHighF,TemperatureAvgF,TemperatureLowF,DewpointHighF,DewpointAvgF,DewpointLowF,HumidityHigh,HumidityAvg,HumidityLow,PressureMaxIn,PressureMinIn,WindSpeedMaxMPH,WindSpeedAvgMPH,GustSpeedMaxMPH,PrecipitationSumIn
2013-1-1,57,46,40,42,37,29,91,72,48,30.28,30.21,7,1,7,0.00
2013-1-2,57,46,39,42,37,33,89,71,51,30.25,30.14,3,0,4,0.00
2013-1-3,55,45,40,44,39,36,89,81,64,30.28,30.17,5,0,7,0.00
2013-1-4,59,47,40,44,40,37,89,76,55,30.30,30.18,4,0,5,0.00
2013-1-5,50,47,43,46,43,39,93,88,81,30.26,30.07,10,0,10,0.39
2013-1-6,55,47,44,48,44,42,93,89,75,30.20,30.06,6,0,7,0.08
2013-1-7,62,49,43,53,45,40,92,87,69,30.27,30.17,6,0,6,0.01
2013-1-8,56,48,43,49,44,41,92,87,73,30.25,30.13,5,0,5,0.00
2013-1-9,53,47,43,49,43,37,92,86,74,30.16,30.00,16,2,18,0.00
2013-1-10,57,45,39,42,37,32,86,72,52,30.19,30.08,8,0,8,0.00
2013-1-11,59,45,40,46,37,31,89,74,53,30.27,30.13,11,1,12,0.00
2013-1-12,54,43,37,38,34,24,89,71,34,30.26,30.15,8,0,8,0.00
2013-1-13,54,41,33,36,30,20,90,68,35,30.27,30.19,6,0,6,0.00
2013-1-14,56,45,37,35,26,19,73,47,31,30.41,30.23,8,1,9,0.00
2013-1-15,55,44,37,40,35,30,89,71,44,30.48,30.40,3,0,4,0.00
2013-1-16,61,45,36,43,36,32,88,72,45,30.44,30.26,5,0,5,0.00
2013-1-17,62,49,40,45,38,36,88,69,44,30.27,30.16,4,0,4,0.00
2013-1-18,64,51,43,43,38,32,80,62,40,30.24,30.14,4,0,5,0.00
2013-1-19,63,51,43,43,37,30,80,59,46,30.25,30.16,4,0,5,0.00
2013-1-20,66,53,44,42,36,30,76,53,35,30.23,30.14,4,0,6,0.00
2013-1-21,61,51,43,45,40,34,82,67,50,30.18,30.09,5,0,6,0.00
2013-1-22,58,52,46,45,42,39,80,71,57,30.12,30.01,6,1,7,0.00
2013-1-23,54,50,48,48,45,42,92,82,66,30.09,29.96,10,1,12,0.23
2013-1-24,57,52,48,53,49,46,93,91,84,30.20,30.07,3,0,3,0.00
2013-1-25,68,57,51,58,52,48,92,85,69,30.20,30.04,4,0,4,0.00
2013-1-26,63,53,46,51,44,37,91,73,43,30.08,29.99,11,1,16,0.00
2013-1-27,58,48,42,43,39,36,83,72,54,30.18,30.07,5,1,7,0.00
2013-1-28,62,50,43,46,42,37,87,74,53,30.29,30.16,7,0,8,0.00
2013-1-29,63,51,44,49,43,39,85,75,58,30.36,30.27,9,0,10,0.00
2013-1-30,66,55,46,50,45,42,88,72,50,30.35,30.26,8,1,8,0.00
2013-1-31,65,53,44,50,46,41,90,77,56,30.29,30.18,5,0,5,0.00